createdAt,value
2022-11-13T00:02:10.937Z,96772.47
2022-11-13T00:05:16.015Z,96771.47
2022-11-13T00:08:20.507Z,96777.34
2022-11-13T00:11:25.536Z,96767.41
2022-11-13T00:14:30.381Z,96773.59
2022-11-13T00:17:35.330Z,96775.53
2022-11-13T00:20:40.023Z,96765.28
2022-11-13T00:23:45.073Z,96759.91
2022-11-13T00:26:49.307Z,96759.66
2022-11-13T00:29:53.894Z,96755.84
2022-11-13T00:32:58.721Z,96752.34
2022-11-13T00:36:05.145Z,96750.97
2022-11-13T00:39:10.005Z,96751.75
2022-11-13T00:42:14.368Z,96753.63
2022-11-13T00:45:18.997Z,96747.13
2022-11-13T00:48:23.673Z,96758.13
2022-11-13T00:51:28.051Z,96751.34
2022-11-13T00:54:32.716Z,96753.25
2022-11-13T00:57:37.334Z,96740.91
2022-11-13T01:00:43.773Z,96743.25
2022-11-13T01:03:48.201Z,96737.88
2022-11-13T01:06:53.002Z,96734.63
2022-11-13T01:09:57.523Z,96734.63
2022-11-13T01:13:01.986Z,96723.09
2022-11-13T01:16:09.256Z,96724.41
2022-11-13T01:19:13.506Z,96728.16
2022-11-13T01:22:18.238Z,96717.91
2022-11-13T01:25:22.536Z,96721.66
2022-11-13T01:28:27.707Z,96725.66
2022-11-13T01:31:32.410Z,96727.22
2022-11-13T01:34:37.080Z,96719.44
2022-11-13T01:37:44.631Z,96726.94
2022-11-13T01:40:49.249Z,96732.53
2022-11-13T01:43:54.860Z,96722.03
2022-11-13T01:46:59.697Z,96717.16
2022-11-13T01:50:04.466Z,96709.38
2022-11-13T01:53:08.977Z,96708.59
2022-11-13T01:56:14.326Z,96712.00
2022-11-13T01:59:20.963Z,96713.63
2022-11-13T02:02:26.064Z,96728.94
2022-11-13T02:05:30.800Z,96721.34
2022-11-13T02:08:35.388Z,96720.78
2022-11-13T02:11:40.085Z,96731.47
2022-11-13T02:14:47.895Z,96744.91
2022-11-13T02:17:57.651Z,96747.28
2022-11-13T02:21:27.458Z,96740.50
2022-11-13T02:24:37.703Z,96730.31
2022-11-13T02:27:45.285Z,96731.34
2022-11-13T02:30:49.639Z,96730.31
2022-11-13T02:33:54.234Z,96744.53
2022-11-13T02:36:58.669Z,96742.66
2022-11-13T02:40:03.739Z,96733.53
2022-11-13T02:43:08.501Z,96736.22
2022-11-13T02:46:13.092Z,96733.53
2022-11-13T02:49:17.536Z,96743.44
2022-11-13T02:52:22.602Z,96732.41
2022-11-13T02:55:27.532Z,96722.78
2022-11-13T02:58:32.261Z,96726.84
2022-11-13T03:01:36.722Z,96733.53
2022-11-13T03:05:10.388Z,96718.00
2022-11-13T03:08:06.604Z,96726.03
2022-11-13T03:11:11.424Z,96721.72
2022-11-13T03:14:15.889Z,96729.28
2022-11-13T03:17:20.571Z,96732.22
2022-11-13T03:20:24.901Z,96729.78
2022-11-13T03:23:30.622Z,96725.75
2022-11-13T03:26:34.934Z,96718.75
2022-11-13T03:29:39.854Z,96718.19
2022-11-13T03:32:44.647Z,96742.81
2022-11-13T03:35:49.605Z,96745.25
2022-11-13T03:38:54.610Z,96743.63
2022-11-13T03:41:58.899Z,96754.38
2022-11-13T03:45:02.987Z,96742.00
2022-11-13T03:48:07.759Z,96743.16
2022-11-13T03:51:12.157Z,96753.88
2022-11-13T03:54:16.626Z,96755.50
2022-11-13T03:57:21.111Z,96758.75
2022-11-13T04:00:25.886Z,96742.09
2022-11-13T04:03:30.673Z,96754.75
2022-11-13T04:06:35.390Z,96737.78
2022-11-13T04:09:40.214Z,96736.28
2022-11-13T04:12:44.886Z,96744.66
2022-11-13T04:15:49.662Z,96733.13
2022-11-13T04:18:54.664Z,96732.88
2022-11-13T04:21:59.520Z,96731.53
2022-11-13T04:25:05.240Z,96726.16
2022-11-13T05:21:30.272Z,96711.06
2022-11-13T05:26:01.296Z,96707.31
2022-11-13T05:30:30.266Z,96708.97
2022-11-13T05:35:01.250Z,96707.09
2022-11-13T05:39:31.260Z,96724.00
2022-11-13T05:43:41.407Z,96722.38
2022-11-13T05:48:12.278Z,96725.06
2022-11-13T05:52:43.276Z,96734.16
2022-11-13T05:57:14.297Z,96736.59
2022-11-13T06:01:45.347Z,96731.00
2022-11-13T06:06:16.489Z,96734.22
2022-11-13T06:10:47.313Z,96749.84
2022-11-13T06:15:18.296Z,96747.47
2022-11-13T06:24:26.334Z,96753.13
2022-11-13T06:28:55.301Z,96762.41
2022-11-13T06:33:25.251Z,96758.38
2022-11-13T06:37:56.211Z,96762.19
2022-11-13T06:42:26.305Z,96764.16
2022-11-13T06:46:56.279Z,96767.38
2022-11-13T06:51:28.189Z,96770.63
2022-11-13T06:55:57.356Z,96758.81
2022-11-13T07:00:32.268Z,96759.38
2022-11-13T07:04:59.202Z,96772.84
2022-11-13T07:09:29.126Z,96772.34
2022-11-13T07:12:43.880Z,96759.50
2022-11-13T07:26:47.183Z,96743.22
2022-11-13T07:31:28.321Z,96737.91
2022-11-13T07:35:13.781Z,96736.06
2022-11-13T07:39:44.345Z,96724.28
2022-11-13T07:42:59.042Z,96714.66
2022-11-13T07:46:37.365Z,96724.94
2022-11-13T07:49:42.501Z,96729.09
2022-11-13T07:52:47.040Z,96726.69
2022-11-13T07:57:16.327Z,96716.56
2022-11-13T08:01:47.360Z,96711.75
2022-11-13T08:06:18.394Z,96723.91
2022-11-13T08:10:48.358Z,96723.44
2022-11-13T08:15:19.411Z,96715.69
2022-11-13T08:19:50.404Z,96707.13
2022-11-13T08:29:10.812Z,96703.50
2022-11-13T08:33:41.651Z,96694.41
2022-11-13T08:38:11.384Z,96698.50
2022-11-13T08:42:42.411Z,96688.06
2022-11-13T08:47:13.388Z,96691.34
2022-11-13T08:51:44.422Z,96698.66
2022-11-13T08:56:15.407Z,96697.91
2022-11-13T09:00:33.752Z,96691.50
2022-11-13T09:03:38.411Z,96689.91
2022-11-13T09:06:42.923Z,96694.19
2022-11-13T09:11:13.324Z,96699.00
2022-11-13T09:14:18.011Z,96705.44
2022-11-13T09:17:22.426Z,96695.91
2022-11-13T09:21:51.452Z,96707.44
2022-11-13T09:30:59.475Z,96699.06
2022-11-13T09:35:28.393Z,96694.28
2022-11-13T09:39:59.437Z,96700.06
2022-11-13T09:52:55.677Z,96686.09
2022-11-13T10:00:44.454Z,96685.41
2022-11-13T10:04:49.079Z,96669.50
2022-11-13T10:09:03.167Z,96666.22
2022-11-13T10:32:14.514Z,96647.97
2022-11-13T10:35:57.860Z,96646.97
2022-11-13T10:39:23.142Z,96649.00
2022-11-13T10:43:58.663Z,96631.75
2022-11-13T10:48:03.271Z,96621.94
2022-11-13T10:51:46.984Z,96609.16
2022-11-13T10:56:16.502Z,96607.66
2022-11-13T11:00:47.883Z,96605.94
2022-11-13T11:05:18.554Z,96618.41
2022-11-13T11:09:05.084Z,96596.38
2022-11-13T11:13:25.598Z,96600.63
2022-11-13T11:16:31.246Z,96601.06
2022-11-13T11:19:37.847Z,96601.75
2022-11-13T11:32:41.638Z,96587.31
2022-11-13T11:36:50.539Z,96585.78
2022-11-13T11:40:00.751Z,96580.47
2022-11-13T11:43:18.871Z,96579.91
2022-11-13T11:46:25.293Z,96573.25
2022-11-13T11:49:30.164Z,96561.69
2022-11-13T11:52:54.792Z,96571.75
2022-11-13T11:56:20.757Z,96562.41
2022-11-13T11:59:51.693Z,96565.06
2022-11-13T12:03:25.947Z,96551.56
2022-11-13T12:06:57.650Z,96549.13
2022-11-13T12:10:17.459Z,96547.66
2022-11-13T12:13:29.315Z,96537.44
2022-11-13T12:16:50.322Z,96541.06
2022-11-13T12:20:17.881Z,96532.97
2022-11-13T12:23:35.117Z,96544.19
2022-11-13T12:26:59.128Z,96536.72
2022-11-13T12:30:28.293Z,96537.59
2022-11-13T12:34:00.884Z,96532.72
2022-11-13T12:37:11.730Z,96528.66
2022-11-13T12:40:44.655Z,96527.94
2022-11-13T12:44:10.885Z,96532.53
2022-11-13T12:47:15.826Z,96532.22
2022-11-13T12:50:32.533Z,96529.97
2022-11-13T12:53:49.474Z,96528.66
2022-11-13T12:56:54.006Z,96526.16
2022-11-13T13:00:02.280Z,96521.41
2022-11-13T13:03:27.709Z,96506.44
2022-11-13T13:06:54.055Z,96522.72
2022-11-13T13:10:23.476Z,96519.44
2022-11-13T13:13:38.157Z,96520.56
2022-11-13T13:16:42.608Z,96518.03
2022-11-13T13:19:57.880Z,96520.50
2022-11-13T13:23:07.254Z,96500.44
2022-11-13T13:26:22.584Z,96516.88
2022-11-13T13:29:30.230Z,96510.72
2022-11-13T13:32:55.483Z,96525.44
2022-11-13T13:36:12.459Z,96515.81
2022-11-13T13:39:46.761Z,96508.72
2022-11-13T13:43:22.877Z,96516.34
2022-11-13T13:46:31.402Z,96508.00
2022-11-13T13:49:36.660Z,96506.47
2022-11-13T13:52:41.019Z,96516.44
2022-11-13T13:56:05.316Z,96499.47
2022-11-13T13:59:18.463Z,96515.31
2022-11-13T14:02:24.214Z,96503.09
2022-11-13T14:05:31.680Z,96508.00
2022-11-13T14:08:36.098Z,96509.84
2022-11-13T14:11:40.284Z,96507.31
2022-11-13T14:14:44.973Z,96518.69
2022-11-13T14:17:49.590Z,96511.13
2022-11-13T14:20:56.847Z,96506.28
2022-11-13T14:24:03.628Z,96513.88
2022-11-13T14:27:13.146Z,96509.50
2022-11-13T14:30:30.466Z,96511.47
2022-11-13T14:33:41.262Z,96514.63
2022-11-13T14:36:46.001Z,96506.03
2022-11-13T14:39:51.318Z,96525.66
2022-11-13T14:42:58.972Z,96523.50
2022-11-13T14:46:05.795Z,96520.72
2022-11-13T14:49:17.080Z,96526.63
2022-11-13T14:52:27.840Z,96526.06
2022-11-13T14:55:37.095Z,96518.09
2022-11-13T14:58:47.025Z,96530.34
2022-11-13T15:01:55.673Z,96537.88
2022-11-13T15:05:00.372Z,96528.34
2022-11-13T15:08:05.425Z,96536.41
2022-11-13T15:11:14.072Z,96533.41
2022-11-13T15:14:20.326Z,96534.25
2022-11-13T15:17:25.279Z,96532.22
2022-11-13T15:20:31.204Z,96526.41
2022-11-13T15:23:39.225Z,96519.56
2022-11-13T15:26:44.181Z,96525.59
2022-11-13T15:29:51.274Z,96533.63
2022-11-13T15:32:57.250Z,96527.47
2022-11-13T15:36:01.847Z,96536.25
2022-11-13T15:39:09.385Z,96536.31
2022-11-13T15:42:18.477Z,96538.63
2022-11-13T15:45:23.033Z,96548.69
2022-11-13T15:48:27.807Z,96546.63
2022-11-13T15:51:42.162Z,96544.72
2022-11-13T15:54:46.934Z,96540.78
2022-11-13T15:57:51.291Z,96551.91
2022-11-13T16:00:55.574Z,96546.16
2022-11-13T16:04:02.505Z,96544.63
2022-11-13T16:07:14.386Z,96543.13
2022-11-13T16:10:19.877Z,96546.41
2022-11-13T16:13:24.595Z,96541.06
2022-11-13T16:16:33.954Z,96547.91
2022-11-13T16:19:39.230Z,96558.53
2022-11-13T16:22:44.519Z,96555.88
2022-11-13T16:25:49.482Z,96550.31
2022-11-13T16:32:19.459Z,96558.31
2022-11-13T16:35:24.031Z,96563.00
2022-11-13T16:38:28.623Z,96564.41
2022-11-13T16:41:33.543Z,96566.38
2022-11-13T16:44:38.722Z,96568.84
2022-11-13T16:47:43.507Z,96566.47
2022-11-13T16:50:48.453Z,96554.88
2022-11-13T16:53:54.185Z,96566.28
2022-11-13T16:56:58.922Z,96562.63
2022-11-13T17:00:06.302Z,96570.03
2022-11-13T17:03:11.071Z,96576.91
2022-11-13T17:06:19.898Z,96573.81
2022-11-13T17:09:24.813Z,96592.25
2022-11-13T17:12:29.005Z,96591.81
2022-11-13T17:15:33.820Z,96604.00
2022-11-13T17:18:38.240Z,96609.78
2022-11-13T17:21:44.449Z,96605.50
2022-11-13T17:24:50.421Z,96609.28
2022-11-13T17:27:54.695Z,96598.00
2022-11-13T17:31:31.125Z,96598.03
2022-11-13T17:34:36.799Z,96594.31
2022-11-13T17:37:41.910Z,96596.03
2022-11-13T17:40:48.193Z,96609.34
2022-11-13T17:43:56.803Z,96599.41
2022-11-13T17:47:04.467Z,96593.56
2022-11-13T17:50:09.524Z,96603.84
2022-11-13T17:53:13.716Z,96594.19
2022-11-13T17:56:20.191Z,96597.44
2022-11-13T17:59:24.955Z,96596.91
2022-11-13T18:02:29.739Z,96606.16
2022-11-13T18:05:40.495Z,96598.06
2022-11-13T18:08:46.219Z,96604.59
2022-11-13T18:11:50.991Z,96597.59
2022-11-13T18:14:55.605Z,96590.63
2022-11-13T18:18:02.704Z,96597.66
2022-11-13T18:21:23.018Z,96601.47
2022-11-13T18:24:28.042Z,96614.69
2022-11-13T18:27:32.663Z,96619.06
2022-11-13T18:30:39.431Z,96624.75
2022-11-13T18:33:43.820Z,96620.47
2022-11-13T18:36:48.487Z,96622.09
2022-11-13T18:39:53.042Z,96618.38
2022-11-13T18:42:57.444Z,96630.25
2022-11-13T18:46:04.942Z,96621.34
2022-11-13T18:49:09.496Z,96616.78
2022-11-13T18:52:13.804Z,96627.03
2022-11-13T18:55:18.243Z,96611.94
2022-11-13T18:58:23.047Z,96622.22
2022-11-13T19:01:31.814Z,96626.56
2022-11-13T19:04:36.437Z,96631.97
2022-11-13T19:07:40.882Z,96630.41
2022-11-13T19:10:45.315Z,96636.66
2022-11-13T19:13:50.010Z,96625.63
2022-11-13T19:16:55.364Z,96636.44
2022-11-13T19:19:59.904Z,96632.94
2022-11-13T19:23:09.044Z,96643.44
2022-11-13T19:26:14.423Z,96642.94
2022-11-13T19:29:19.564Z,96637.53
2022-11-13T19:32:24.305Z,96625.66
2022-11-13T19:35:29.086Z,96631.59
2022-11-13T19:38:33.638Z,96629.97
2022-11-13T19:41:38.585Z,96632.66
2022-11-13T19:44:42.590Z,96644.00
2022-11-13T19:47:47.008Z,96638.09
2022-11-13T19:50:51.698Z,96642.13
2022-11-13T19:53:58.628Z,96645.09
2022-11-13T19:57:03.398Z,96648.09
2022-11-13T20:00:08.704Z,96642.41
2022-11-13T20:03:13.804Z,96640.78
2022-11-13T20:06:18.231Z,96639.16
2022-11-13T20:09:22.697Z,96639.16
2022-11-13T20:12:29.588Z,96635.41
2022-11-13T20:15:34.453Z,96637.84
2022-11-13T20:18:39.443Z,96626.25
2022-11-13T20:21:43.845Z,96617.06
2022-11-13T20:24:48.470Z,96626.25
2022-11-13T20:27:52.930Z,96615.97
2022-11-13T20:31:06.967Z,96611.16
2022-11-13T20:34:11.737Z,96614.94
2022-11-13T20:37:16.110Z,96610.88
2022-11-13T20:40:21.009Z,96611.09
2022-11-13T20:43:25.479Z,96617.59
2022-11-13T20:46:30.745Z,96605.19
2022-11-13T20:49:35.049Z,96608.41
2022-11-13T20:52:40.435Z,96611.91
2022-11-13T20:55:45.278Z,96618.09
2022-11-13T20:58:50.129Z,96616.75
2022-11-13T21:01:54.978Z,96613.81
2022-11-13T21:04:59.897Z,96614.34
2022-11-13T21:08:04.841Z,96613.78
2022-11-13T21:11:14.602Z,96612.19
2022-11-13T21:14:19.291Z,96604.06
2022-11-13T21:17:23.576Z,96607.31
2022-11-13T21:20:29.077Z,96600.31
2022-11-13T21:23:34.601Z,96598.13
2022-11-13T21:26:38.984Z,96601.88
2022-11-13T21:29:44.248Z,96600.22
2022-11-13T21:32:48.925Z,96607.22
2022-11-13T21:35:53.409Z,96604.75
2022-11-13T21:38:58.066Z,96600.63
2022-11-13T21:42:03.068Z,96601.38
2022-11-13T21:45:08.430Z,96600.00
2022-11-13T21:48:13.232Z,96597.84
2022-11-13T21:51:17.942Z,96596.47
2022-11-13T21:54:22.795Z,96595.72
2022-11-13T21:57:27.189Z,96595.13
2022-11-13T22:00:31.442Z,96601.53
2022-11-13T22:03:35.826Z,96599.84
2022-11-13T22:06:40.507Z,96602.44
2022-11-13T22:09:45.176Z,96594.22
2022-11-13T22:12:49.883Z,96602.56
2022-11-13T22:15:54.575Z,96600.66
2022-11-13T22:19:01.536Z,96601.78
2022-11-13T22:22:06.127Z,96596.41
2022-11-13T22:25:10.671Z,96593.22
2022-11-13T22:28:15.513Z,96583.00
2022-11-13T22:31:25.133Z,96585.16
2022-11-13T22:34:29.952Z,96584.06
2022-11-13T22:37:34.404Z,96595.91
2022-11-13T22:40:39.024Z,96583.44
2022-11-13T22:43:43.498Z,96591.50
2022-11-13T22:46:48.046Z,96577.47
2022-11-13T22:49:52.644Z,96578.28
2022-11-13T22:52:57.323Z,96580.47
2022-11-13T22:56:07.061Z,96574.84
2022-11-13T22:59:12.575Z,96576.47
2022-11-13T23:02:16.834Z,96577.28
2022-11-13T23:05:21.129Z,96577.78
2022-11-13T23:08:25.809Z,96556.75
2022-11-13T23:11:38.009Z,96580.78
2022-11-13T23:14:43.076Z,96571.91
2022-11-13T23:17:47.753Z,96575.41
2022-11-13T23:20:52.356Z,96577.00
2022-11-13T23:23:56.684Z,96576.97
2022-11-13T23:27:00.873Z,96574.78
2022-11-13T23:30:05.727Z,96577.47
2022-11-13T23:33:10.472Z,96580.63
2022-11-13T23:36:18.047Z,96577.31
2022-11-13T23:39:22.796Z,96576.41
2022-11-13T23:42:39.631Z,96582.03
2022-11-13T23:45:51.521Z,96581.47
2022-11-13T23:48:56.186Z,96590.22
2022-11-13T23:52:00.667Z,96594.78
2022-11-13T23:55:05.844Z,96592.34
2022-11-13T23:58:14.098Z,96594.22
